createdAt,value
2023-04-08T00:02:02.684Z,6.20
2023-04-08T00:04:49.131Z,6.20
2023-04-08T00:07:36.096Z,6.20
2023-04-08T00:10:25.001Z,6.10
2023-04-08T00:13:11.769Z,6.20
2023-04-08T00:15:58.561Z,6.30
2023-04-08T00:18:45.249Z,6.30
2023-04-08T00:21:31.847Z,6.40
2023-04-08T00:24:18.315Z,6.50
2023-04-08T00:27:06.511Z,6.60
2023-04-08T00:29:53.147Z,6.60
2023-04-08T00:32:39.744Z,6.50
2023-04-08T00:35:26.700Z,6.50
2023-04-08T00:38:13.422Z,6.40
2023-04-08T00:40:59.965Z,6.40
2023-04-08T00:43:49.026Z,6.40
2023-04-08T00:46:39.561Z,6.40
2023-04-08T00:49:31.699Z,6.30
2023-04-08T00:52:18.560Z,6.30
2023-04-08T00:55:06.160Z,6.30
2023-04-08T00:57:52.747Z,6.40
2023-04-08T01:00:44.787Z,6.40
2023-04-08T01:03:40.481Z,6.40
2023-04-08T01:06:33.406Z,6.50
2023-04-08T01:09:22.248Z,6.40
2023-04-08T01:12:13.760Z,6.30
2023-04-08T01:15:04.324Z,6.20
2023-04-08T01:17:56.217Z,6.20
2023-04-08T01:20:48.478Z,6.20
2023-04-08T01:23:44.216Z,6.20
2023-04-08T01:26:32.538Z,6.30
2023-04-08T01:29:20.535Z,6.30
2023-04-08T01:32:08.540Z,6.30
2023-04-08T01:34:56.378Z,6.40
2023-04-08T01:37:44.274Z,6.30
2023-04-08T01:40:31.615Z,6.30
2023-04-08T01:43:20.787Z,6.20
2023-04-08T01:46:09.582Z,6.10
2023-04-08T01:48:56.820Z,6.10
2023-04-08T01:51:45.386Z,6.00
2023-04-08T01:54:32.332Z,5.90
2023-04-08T01:57:24.117Z,5.80
2023-04-08T02:00:14.657Z,5.80
2023-04-08T02:03:02.093Z,5.90
2023-04-08T02:05:48.811Z,5.90
2023-04-08T02:08:36.391Z,5.80
2023-04-08T02:11:23.176Z,5.80
2023-04-08T02:14:10.959Z,5.80
2023-04-08T02:17:09.885Z,5.80
2023-04-08T02:20:02.341Z,5.70
2023-04-08T02:22:54.089Z,5.70
2023-04-08T02:25:45.458Z,5.80
2023-04-08T02:28:34.632Z,5.90
2023-04-08T02:31:22.490Z,5.90
2023-04-08T02:34:12.194Z,6.10
2023-04-08T02:37:00.977Z,6.10
2023-04-08T02:39:47.740Z,6.10
2023-04-08T02:42:34.145Z,6.10
2023-04-08T02:45:21.259Z,6.10
2023-04-08T02:48:08.423Z,6.20
2023-04-08T02:50:57.201Z,6.10
2023-04-08T02:53:43.933Z,6.20
2023-04-08T02:56:30.657Z,6.30
2023-04-08T02:59:17.019Z,6.30
2023-04-08T03:02:03.427Z,6.30
2023-04-08T03:04:50.348Z,6.40
2023-04-08T03:07:38.428Z,6.30
2023-04-08T03:10:25.277Z,6.40
2023-04-08T03:13:11.922Z,6.50
2023-04-08T03:15:58.319Z,6.40
2023-04-08T03:18:44.731Z,6.30
2023-04-08T03:21:32.293Z,6.00
2023-04-08T03:24:20.174Z,5.80
2023-04-08T03:27:08.312Z,5.60
2023-04-08T03:29:55.030Z,5.60
2023-04-08T03:32:41.626Z,5.50
2023-04-08T03:35:28.426Z,5.50
2023-04-08T03:38:15.145Z,5.60
2023-04-08T03:41:03.344Z,5.60
2023-04-08T03:43:49.808Z,5.60
2023-04-08T03:46:36.248Z,5.70
2023-04-08T03:49:22.866Z,5.60
2023-04-08T03:52:09.332Z,5.50
2023-04-08T03:54:56.017Z,5.50
2023-04-08T03:57:45.458Z,5.50
2023-04-08T04:00:32.461Z,5.50
2023-04-08T04:03:19.752Z,5.50
2023-04-08T04:06:06.868Z,5.50
2023-04-08T04:08:55.347Z,5.40
2023-04-08T04:11:41.989Z,5.50
2023-04-08T04:14:29.926Z,5.50
2023-04-08T04:17:16.713Z,5.60
2023-04-08T04:20:05.433Z,5.60
2023-04-08T04:22:55.075Z,5.60
2023-04-08T04:25:42.810Z,5.60
2023-04-08T04:28:29.581Z,5.50
2023-04-08T04:31:26.372Z,5.50
2023-04-08T04:34:13.040Z,5.50
2023-04-08T04:36:59.444Z,5.60
2023-04-08T04:39:46.001Z,5.60
2023-04-08T04:42:33.018Z,5.50
2023-04-08T04:45:19.986Z,5.50
2023-04-08T04:48:08.134Z,5.50
2023-04-08T04:50:58.679Z,5.50
2023-04-08T04:53:45.341Z,5.50
2023-04-08T04:56:31.880Z,5.60
2023-04-08T04:59:18.420Z,5.70
2023-04-08T05:02:05.081Z,5.80
2023-04-08T05:04:55.731Z,5.80
2023-04-08T05:07:42.142Z,5.80
2023-04-08T05:10:28.537Z,5.90
2023-04-08T05:13:15.156Z,6.00
2023-04-08T05:16:01.967Z,6.00
2023-04-08T05:18:48.453Z,6.00
2023-04-08T05:21:36.664Z,5.90
2023-04-08T05:24:23.617Z,5.80
2023-04-08T05:27:11.164Z,5.90
2023-04-08T05:29:57.948Z,6.00
2023-04-08T05:32:44.344Z,5.90
2023-04-08T05:35:30.623Z,5.80
2023-04-08T05:38:18.536Z,5.90
2023-04-08T05:41:05.411Z,5.80
2023-04-08T05:43:51.695Z,5.80
2023-04-08T05:46:38.948Z,5.80
2023-04-08T05:49:25.836Z,6.00
2023-04-08T05:52:12.254Z,5.90
2023-04-08T05:54:59.852Z,5.90
2023-04-08T05:57:46.359Z,6.00
2023-04-08T06:00:32.895Z,6.00
2023-04-08T06:03:21.010Z,6.00
2023-04-08T06:06:12.302Z,6.10
2023-04-08T06:08:58.813Z,5.90
2023-04-08T06:11:47.201Z,5.90
2023-04-08T06:14:33.890Z,5.80
2023-04-08T06:17:20.177Z,5.80
2023-04-08T06:20:09.234Z,5.80
2023-04-08T06:22:55.989Z,5.80
2023-04-08T06:25:42.494Z,5.80
2023-04-08T06:28:31.799Z,5.70
2023-04-08T06:31:18.242Z,5.70
2023-04-08T06:34:04.542Z,5.70
2023-04-08T06:36:51.342Z,5.70
2023-04-08T06:39:38.106Z,5.80
2023-04-08T06:42:24.395Z,5.80
2023-04-08T06:45:12.783Z,5.80
2023-04-08T06:47:59.615Z,5.80
2023-04-08T06:50:46.339Z,5.90
2023-04-08T06:53:33.663Z,5.90
2023-04-08T06:56:21.376Z,6.00
2023-04-08T06:59:08.008Z,6.10
2023-04-08T07:01:55.814Z,6.10
2023-04-08T07:04:44.267Z,6.20
2023-04-08T07:07:32.409Z,6.20
2023-04-08T07:10:19.149Z,6.30
2023-04-08T07:13:05.584Z,6.10
2023-04-08T07:15:52.562Z,6.10
2023-04-08T07:18:41.415Z,6.10
2023-04-08T07:21:27.724Z,6.10
2023-04-08T07:24:14.182Z,6.20
2023-04-08T07:27:00.653Z,6.20
2023-04-08T07:29:53.241Z,6.30
2023-04-08T07:32:39.978Z,6.40
2023-04-08T07:35:27.813Z,6.40
2023-04-08T07:38:14.823Z,6.40
2023-04-08T07:41:01.623Z,6.60
2023-04-08T07:43:48.214Z,6.60
2023-04-08T07:46:38.555Z,6.70
2023-04-08T07:49:25.557Z,6.70
2023-04-08T07:52:13.191Z,6.70
2023-04-08T07:54:59.664Z,6.80
2023-04-08T07:57:46.078Z,6.90
2023-04-08T08:00:33.357Z,7.00
2023-04-08T08:06:07.077Z,7.10
2023-04-08T08:08:55.127Z,7.20
2023-04-08T08:11:41.800Z,7.20
2023-04-08T08:14:28.929Z,7.30
2023-04-08T08:17:15.636Z,7.10
2023-04-08T08:20:02.278Z,7.00
2023-04-08T08:22:57.326Z,6.90
2023-04-08T08:25:45.447Z,6.80
2023-04-08T08:28:31.956Z,6.70
2023-04-08T08:31:18.221Z,6.70
2023-04-08T08:34:04.598Z,6.70
2023-04-08T08:36:51.261Z,6.70
2023-04-08T08:39:39.262Z,6.80
2023-04-08T08:42:27.510Z,6.80
2023-04-08T08:45:14.870Z,6.80
2023-04-08T08:48:01.482Z,6.90
2023-04-08T08:50:48.430Z,6.90
2023-04-08T08:53:35.993Z,6.80
2023-04-08T08:56:23.099Z,6.90
2023-04-08T08:59:10.803Z,6.90
2023-04-08T09:01:57.577Z,6.90
2023-04-08T09:04:58.585Z,7.10
2023-04-08T09:07:45.516Z,7.10
2023-04-08T09:10:32.173Z,7.30
2023-04-08T09:13:18.715Z,7.40
2023-04-08T09:16:09.120Z,7.40
2023-04-08T09:18:55.868Z,7.50
2023-04-08T09:21:42.590Z,7.50
2023-04-08T09:24:30.741Z,7.50
2023-04-08T09:27:17.334Z,7.60
2023-04-08T09:30:23.185Z,7.70
2023-04-08T09:33:11.696Z,7.80
2023-04-08T09:35:58.425Z,8.00
2023-04-08T09:38:45.558Z,8.10
2023-04-08T09:41:35.611Z,8.20
2023-04-08T09:47:20.687Z,8.40
2023-04-08T09:50:10.674Z,8.40
2023-04-08T09:53:02.954Z,8.50
2023-04-08T09:55:54.093Z,8.70
2023-04-08T09:58:43.594Z,8.80
2023-04-08T10:01:38.621Z,9.00
2023-04-08T10:04:29.375Z,9.30
2023-04-08T10:07:17.503Z,9.40
2023-04-08T10:10:04.854Z,9.50
2023-04-08T10:12:52.190Z,9.60
2023-04-08T10:15:40.884Z,9.60
2023-04-08T10:18:34.410Z,9.60
2023-04-08T10:21:39.558Z,9.70
2023-04-08T10:24:27.487Z,9.70
2023-04-08T10:27:41.851Z,9.40
2023-04-08T10:30:42.030Z,9.40
2023-04-08T10:33:39.179Z,9.50
2023-04-08T10:36:28.040Z,9.50
2023-04-08T10:39:15.840Z,9.60
2023-04-08T10:42:04.406Z,9.30
2023-04-08T10:44:51.371Z,9.20
2023-04-08T10:47:37.908Z,9.20
2023-04-08T10:50:24.790Z,9.50
2023-04-08T10:53:12.284Z,9.80
2023-04-08T10:56:06.201Z,10.00
2023-04-08T10:58:56.140Z,10.00
2023-04-08T11:01:44.977Z,10.00
2023-04-08T11:04:31.952Z,10.10
2023-04-08T11:07:21.683Z,10.30
2023-04-08T11:10:09.406Z,10.40
2023-04-08T11:12:56.716Z,10.50
2023-04-08T11:15:44.581Z,10.60
2023-04-08T11:18:32.243Z,10.60
2023-04-08T11:21:18.857Z,10.70
2023-04-08T11:24:11.915Z,10.70
2023-04-08T11:26:59.372Z,10.90
2023-04-08T11:29:46.186Z,10.90
2023-04-08T11:32:35.250Z,10.70
2023-04-08T11:35:21.846Z,10.70
2023-04-08T11:38:09.649Z,10.60
2023-04-08T11:40:56.598Z,10.70
2023-04-08T11:43:53.150Z,10.80
2023-04-08T11:46:40.933Z,10.90
2023-04-08T11:49:29.592Z,10.80
2023-04-08T11:52:16.254Z,10.90
2023-04-08T11:55:02.651Z,11.00
2023-04-08T11:57:49.159Z,10.90
2023-04-08T12:00:35.573Z,10.80
2023-04-08T12:03:22.056Z,10.80
2023-04-08T12:06:10.222Z,10.70
2023-04-08T12:08:57.653Z,10.70
2023-04-08T12:11:44.352Z,10.60
2023-04-08T12:14:30.972Z,10.50
2023-04-08T12:17:17.554Z,10.50
2023-04-08T12:20:04.299Z,10.70
2023-04-08T12:22:52.245Z,10.80
2023-04-08T12:25:38.598Z,10.90
2023-04-08T12:28:25.042Z,11.00
2023-04-08T12:31:11.561Z,11.00
2023-04-08T12:33:57.810Z,11.10
2023-04-08T12:36:44.790Z,11.20
2023-04-08T12:39:32.833Z,11.30
2023-04-08T12:42:19.196Z,11.50
2023-04-08T12:45:08.250Z,11.40
2023-04-08T12:47:55.119Z,11.30
2023-04-08T12:50:41.516Z,11.30
2023-04-08T12:53:27.807Z,11.10
2023-04-08T12:56:15.735Z,11.20
2023-04-08T12:59:02.559Z,11.40
2023-04-08T13:01:49.184Z,11.30
2023-04-08T13:04:35.627Z,11.20
2023-04-08T13:07:22.042Z,11.30
2023-04-08T13:10:09.915Z,11.30
2023-04-08T13:12:58.318Z,11.40
2023-04-08T13:15:44.765Z,11.50
2023-04-08T13:18:31.177Z,11.30
2023-04-08T13:21:20.117Z,11.10
2023-04-08T13:24:07.211Z,11.20
2023-04-08T13:26:53.903Z,11.30
2023-04-08T13:29:41.585Z,11.10
2023-04-08T13:32:28.106Z,11.00
2023-04-08T13:35:14.547Z,10.90
2023-04-08T13:38:01.148Z,10.80
2023-04-08T13:43:35.978Z,10.60
2023-04-08T13:46:23.716Z,10.60
2023-04-08T13:49:10.966Z,10.50
2023-04-08T13:51:57.561Z,10.60
2023-04-08T13:54:44.023Z,10.70
2023-04-08T13:57:30.630Z,10.70
2023-04-08T14:00:17.406Z,10.70
2023-04-08T14:03:05.218Z,10.80
2023-04-08T14:05:52.345Z,10.80
2023-04-08T14:08:38.798Z,11.00
2023-04-08T14:11:26.074Z,10.90
2023-04-08T14:14:15.680Z,10.80
2023-04-08T14:17:02.573Z,10.80
2023-04-08T14:19:51.022Z,10.90
2023-04-08T14:22:37.720Z,11.00
2023-04-08T14:25:24.067Z,11.00
2023-04-08T14:28:10.523Z,11.10
2023-04-08T14:30:57.086Z,11.10
2023-04-08T14:33:43.915Z,10.90
2023-04-08T14:36:32.854Z,11.00
2023-04-08T14:39:19.796Z,11.00
2023-04-08T14:42:06.134Z,10.90
2023-04-08T14:44:52.523Z,10.90
2023-04-08T14:47:39.013Z,10.90
2023-04-08T14:50:25.792Z,10.80
2023-04-08T14:53:13.324Z,10.80
2023-04-08T14:55:59.724Z,10.70
2023-04-08T14:58:46.054Z,10.70
2023-04-08T15:01:33.603Z,10.70
2023-04-08T15:04:20.482Z,10.60
2023-04-08T15:07:07.521Z,10.40
2023-04-08T15:09:56.400Z,10.50
2023-04-08T15:12:42.781Z,10.60
2023-04-08T15:15:29.322Z,10.60
2023-04-08T15:18:15.923Z,10.80
2023-04-08T15:21:02.471Z,10.80
2023-04-08T15:23:48.890Z,10.80
2023-04-08T15:26:36.617Z,11.00
2023-04-08T15:29:24.590Z,11.00
2023-04-08T15:32:10.905Z,11.00
2023-04-08T15:34:57.298Z,10.90
2023-04-08T15:37:43.683Z,11.00
2023-04-08T15:40:32.159Z,10.90
2023-04-08T15:43:19.852Z,10.90
2023-04-08T15:46:06.484Z,10.90
2023-04-08T15:48:53.194Z,10.80
2023-04-08T15:51:44.252Z,10.80
2023-04-08T15:54:31.944Z,10.80
2023-04-08T15:57:18.261Z,10.70
2023-04-08T16:00:10.430Z,10.60
2023-04-08T16:02:57.060Z,10.60
2023-04-08T16:05:43.717Z,10.60
2023-04-08T16:08:30.567Z,10.60
2023-04-08T16:11:17.719Z,10.60
2023-04-08T16:14:05.042Z,10.60
2023-04-08T16:16:52.701Z,10.60
2023-04-08T16:19:39.377Z,10.60
2023-04-08T16:22:26.359Z,10.60
2023-04-08T16:25:12.740Z,10.60
2023-04-08T16:27:59.281Z,10.70
2023-04-08T16:30:47.747Z,10.70
2023-04-08T16:33:36.574Z,10.60
2023-04-08T16:36:22.979Z,10.70
2023-04-08T16:39:09.493Z,10.70
2023-04-08T16:41:58.666Z,10.60
2023-04-08T16:44:45.491Z,10.50
2023-04-08T16:47:32.323Z,10.60
2023-04-08T16:50:20.608Z,10.50
2023-04-08T16:53:07.291Z,10.60
2023-04-08T16:55:54.190Z,10.60
2023-04-08T16:58:40.939Z,10.60
2023-04-08T17:01:27.719Z,10.50
2023-04-08T17:04:14.331Z,10.60
2023-04-08T17:07:03.298Z,10.60
2023-04-08T17:09:52.330Z,10.60
2023-04-08T17:12:38.633Z,10.50
2023-04-08T17:15:25.662Z,10.40
2023-04-08T17:18:12.486Z,10.30
2023-04-08T17:20:59.049Z,10.30
2023-04-08T17:23:46.932Z,10.20
2023-04-08T17:26:33.876Z,10.20
2023-04-08T17:29:20.633Z,10.20
2023-04-08T17:32:07.589Z,10.10
2023-04-08T17:34:54.344Z,10.10
2023-04-08T17:37:40.897Z,10.10
2023-04-08T17:43:15.609Z,9.90
2023-04-08T17:46:02.325Z,10.00
2023-04-08T17:48:49.154Z,9.90
2023-04-08T17:51:35.434Z,9.80
2023-04-08T17:54:21.990Z,9.80
2023-04-08T17:57:10.025Z,9.80
2023-04-08T17:59:56.575Z,9.80
2023-04-08T18:02:43.346Z,9.70
2023-04-08T18:05:30.740Z,9.70
2023-04-08T18:08:17.150Z,9.50
2023-04-08T18:11:06.231Z,9.40
2023-04-08T18:13:54.507Z,9.30
2023-04-08T18:16:41.294Z,9.20
2023-04-08T18:19:27.968Z,9.20
2023-04-08T18:22:14.640Z,9.10
2023-04-08T18:25:01.021Z,9.10
2023-04-08T18:27:47.271Z,9.10
2023-04-08T18:30:35.302Z,8.90
2023-04-08T18:33:21.955Z,9.00
2023-04-08T18:36:09.968Z,8.90
2023-04-08T18:38:57.175Z,8.90
2023-04-08T18:41:43.999Z,8.80
2023-04-08T18:44:30.509Z,8.70
2023-04-08T18:47:18.766Z,8.70
2023-04-08T18:50:06.502Z,8.60
2023-04-08T18:52:52.988Z,8.60
2023-04-08T18:55:39.625Z,8.60
2023-04-08T18:58:27.391Z,8.50
2023-04-08T19:01:16.230Z,8.60
2023-04-08T19:04:04.105Z,8.50
2023-04-08T19:06:51.462Z,8.50
2023-04-08T19:09:38.126Z,8.50
2023-04-08T19:12:24.671Z,8.50
2023-04-08T19:15:11.621Z,8.40
2023-04-08T19:17:59.118Z,8.30
2023-04-08T19:20:47.497Z,8.40
2023-04-08T19:23:34.022Z,8.30
2023-04-08T19:26:20.529Z,8.20
2023-04-08T19:29:11.822Z,8.20
2023-04-08T19:31:59.291Z,8.20
2023-04-08T19:34:45.797Z,8.20
2023-04-08T19:37:33.970Z,8.20
2023-04-08T19:40:20.780Z,8.10
2023-04-08T19:43:07.323Z,8.00
2023-04-08T19:45:54.619Z,8.00
2023-04-08T19:48:41.121Z,8.00
2023-04-08T19:51:31.038Z,8.00
2023-04-08T19:54:19.151Z,8.10
2023-04-08T19:57:08.780Z,8.10
2023-04-08T19:59:55.972Z,8.20
2023-04-08T20:02:42.733Z,8.30
2023-04-08T20:05:29.411Z,8.40
2023-04-08T20:08:15.828Z,8.40
2023-04-08T20:11:04.785Z,8.30
2023-04-08T20:13:51.716Z,8.20
2023-04-08T20:16:38.370Z,8.20
2023-04-08T20:19:25.009Z,8.20
2023-04-08T20:22:11.568Z,8.20
2023-04-08T20:25:01.285Z,8.20
2023-04-08T20:27:49.271Z,8.30
2023-04-08T20:30:35.830Z,8.20
2023-04-08T20:33:22.108Z,8.20
2023-04-08T20:36:08.594Z,8.10
2023-04-08T20:38:57.015Z,8.00
2023-04-08T20:41:44.401Z,8.10
2023-04-08T20:44:32.231Z,8.10
2023-04-08T20:47:18.541Z,8.00
2023-04-08T20:50:07.358Z,8.10
2023-04-08T20:52:54.025Z,8.00
2023-04-08T20:55:40.499Z,8.00
2023-04-08T20:58:27.060Z,8.00
2023-04-08T21:01:14.817Z,8.10
2023-04-08T21:04:02.946Z,8.00
2023-04-08T21:06:49.904Z,7.90
2023-04-08T21:09:36.817Z,7.80
2023-04-08T21:12:23.316Z,7.80
2023-04-08T21:15:10.705Z,7.80
2023-04-08T21:17:58.706Z,7.80
2023-04-08T21:20:45.323Z,7.80
2023-04-08T21:23:31.673Z,7.80
2023-04-08T21:26:18.214Z,7.70
2023-04-08T21:29:04.566Z,7.70
2023-04-08T21:31:51.169Z,7.80
2023-04-08T21:34:38.807Z,7.80
2023-04-08T21:37:25.140Z,7.80
2023-04-08T21:40:14.737Z,7.70
2023-04-08T21:43:01.256Z,7.70
2023-04-08T21:45:47.742Z,7.70
2023-04-08T21:48:34.182Z,7.60
2023-04-08T21:51:24.451Z,7.60
2023-04-08T21:54:13.554Z,7.60
2023-04-08T21:57:01.332Z,7.60
2023-04-08T21:59:47.903Z,7.60
2023-04-08T22:02:40.655Z,7.60
2023-04-08T22:05:27.560Z,7.60
2023-04-08T22:08:16.166Z,7.60
2023-04-08T22:11:03.000Z,7.60
2023-04-08T22:13:49.629Z,7.50
2023-04-08T22:16:36.653Z,7.50
2023-04-08T22:19:23.651Z,7.50
2023-04-08T22:22:10.295Z,7.50
2023-04-08T22:24:58.115Z,7.40
2023-04-08T22:27:44.745Z,7.30
2023-04-08T22:30:31.685Z,7.40
2023-04-08T22:33:18.406Z,7.30
2023-04-08T22:36:05.806Z,7.30
2023-04-08T22:38:52.385Z,7.40
2023-04-08T22:41:40.599Z,7.40
2023-04-08T22:44:27.348Z,7.30
2023-04-08T22:47:13.628Z,7.20
2023-04-08T22:50:00.050Z,7.20
2023-04-08T22:52:46.767Z,7.10
2023-04-08T22:55:33.452Z,7.00
2023-04-08T22:58:21.105Z,7.00
2023-04-08T23:01:12.643Z,7.10
2023-04-08T23:03:59.038Z,7.00
2023-04-08T23:06:45.482Z,7.10
2023-04-08T23:09:32.464Z,7.00
2023-04-08T23:12:18.827Z,6.90
2023-04-08T23:15:07.757Z,7.00
2023-04-08T23:17:54.192Z,7.00
2023-04-08T23:20:40.748Z,7.00
2023-04-08T23:23:27.166Z,7.00
2023-04-08T23:26:18.305Z,7.00
2023-04-08T23:29:04.786Z,7.00
2023-04-08T23:31:52.596Z,6.90
2023-04-08T23:34:38.902Z,6.90
2023-04-08T23:37:25.910Z,6.80
2023-04-08T23:40:12.924Z,6.80
2023-04-08T23:42:59.401Z,6.70
2023-04-08T23:45:45.814Z,6.70
2023-04-08T23:48:33.660Z,6.60
2023-04-08T23:51:20.603Z,6.50
2023-04-08T23:54:07.042Z,6.40
2023-04-08T23:56:53.545Z,6.20
2023-04-08T23:59:40.961Z,6.10
